Aeroporto :
LOGIN :

Iscrizione | Disclaimer

   EN    FR    IT 

 










Sommario :    VFR   VFR Marginale   IFR   IFR Intensivo   IFR Molto Intensivo
Visibilità : 
Base nubi : 
>= 8 km
>= 3000ft
5 / 8 km
1000 / 3000 ft
1500m / 5 km
500 / 1000 ft
800 / 1500m
200 / 500 ft
< 800m
< 200 ft
Simboli :   Temporali  Nebbia  Neve Forte  Precipitazioni Forti  Vento > 20 kt
SIGMETs :   Varie  Temporali  Ghiacco  Turbolenza  Onda orograficha  Ceneri Vulcaniche






- Altitudine del aeroporto : 247 ft
- Codice IATA : BLL


EKBI - Billund

ULTIMO METAR :
  • 040950Z AUTO 21010KT 9999 FEW017/// BKN047/// BKN120/// 06/01 Q1021

METARs OBSOLETI :
  • 040920Z AUTO 21010KT 9999 FEW017/// FEW021/// BKN080/// 07/02 Q1021
  • 040850Z AUTO 21009KT 180V240 9999 FEW014/// FEW016/// BKN081/// 06/02 Q1021
  • 040820Z AUTO 21006KT 180V260 9999 FEW012/// SCT092/// 06/02 Q1021
  • 040750Z AUTO 19002KT 9999 FEW088/// 05/03 Q1021
  • 040720Z AUTO 16002KT 9999 BKN087/// 03/02 Q1020

TAF TAF EKBI
Valido dal 04 a 06 ore il 05 a 06 ore UTC


040515Z 0406/0506 20008KT 9999 SCT035
TEMPO 0409/0414 4000 SHRA BKN012 SCT020CB



MetMap, La meteo Aeronautica in un colpo d'occhio ! - Copyright ORBIFLY Dicembre 2007 - Disclaimer

ORBIFLY MET'MAP TEAM :

Programmazione e sviluppo : Alexandra Zaïnal
Concezione : Baudouin d'Aumeries
Aiuto per la programmazione : Marc-Olivier Méhu
Supporto tecnico e logistico : Manuel Goepfert
Aiuto per la traduzione : Arnaldo La Scala

Contatto : metmap@orbifly.com




FONTI E CREDITI :

   NOAA